Time;durP1;ratioP1;P1;durP2;ratioP2;P2;SDS_P1;SDS_P2;PMS_P1;PMS_P2;Temp;Humidity;BMP_temperature;BMP_pressure;BME280_temperature;BME280_humidity;BME280_pressure;Samples;Min_cycle;Max_cycle;Signal;HPM_P1;HPM_P2
2023/01/18 00:01:42;;;;;;;2.67;2.00;;;;;-1.70;90976.00;;;;7396721;19;20623;-74
2023/01/18 00:04:18;;;;;;;3.43;2.80;;;;;-1.60;90981.00;;;;7400474;19;20437;-73
2023/01/18 00:06:47;;;;;;;3.03;2.37;;;;;-1.60;90975.00;;;;7399561;19;20125;-73
2023/01/18 00:09:20;;;;;;;3.93;3.10;;;;;-1.60;90972.00;;;;7398946;19;20481;-74
2023/01/18 00:11:54;;;;;;;4.27;2.80;;;;;-1.50;90973.00;;;;7399964;19;20150;-74
2023/01/18 00:14:22;;;;;;;4.87;3.10;;;;;-1.60;90984.00;;;;7397983;19;20522;-74
2023/01/18 00:17:02;;;;;;;3.87;3.03;;;;;-1.80;90988.00;;;;7399557;19;20129;-74
2023/01/18 00:19:36;;;;;;;5.47;3.53;;;;;-1.60;90977.00;;;;7399329;19;20461;-74
2023/01/18 00:22:10;;;;;;;4.10;3.30;;;;;-1.60;90987.00;;;;7398527;19;20133;-74
2023/01/18 00:24:39;;;;;;;5.57;4.07;;;;;-1.70;90979.00;;;;7400338;19;20134;-74
2023/01/18 00:27:14;;;;;;;5.07;3.20;;;;;-1.70;90989.00;;;;7398712;19;20144;-73
2023/01/18 00:29:41;;;;;;;4.20;3.40;;;;;-1.70;90983.00;;;;7398724;19;20121;-73
2023/01/18 00:32:17;;;;;;;4.23;3.50;;;;;-1.70;90995.00;;;;7399062;19;20204;-74
2023/01/18 00:34:45;;;;;;;3.57;3.03;;;;;-1.70;90992.00;;;;7395976;19;20148;-74
2023/01/18 00:37:19;;;;;;;4.57;3.47;;;;;-1.70;90979.00;;;;7397553;19;20144;-74
2023/01/18 00:39:54;;;;;;;4.40;3.50;;;;;-1.60;90979.00;;;;7398826;19;20124;-74
2023/01/18 00:45:14;;;;;;;4.23;3.13;;;;;-1.70;90986.00;;;;7398093;19;20608;-73
2023/01/18 00:47:43;;;;;;;4.23;3.10;;;;;-1.80;90980.00;;;;7398520;19;20564;-74
2023/01/18 00:50:19;;;;;;;4.70;3.87;;;;;-1.80;90988.00;;;;7398540;19;20479;-74
2023/01/18 00:52:47;;;;;;;4.70;3.37;;;;;-1.80;90979.00;;;;7398073;19;20161;-74
2023/01/18 00:55:27;;;;;;;4.90;3.70;;;;;-1.70;90984.00;;;;7398643;19;20137;-74
2023/01/18 00:58:00;;;;;;;4.27;3.60;;;;;-1.70;90991.00;;;;7398877;19;20184;-73
2023/01/18 01:00:28;;;;;;;4.37;3.50;;;;;-1.70;90992.00;;;;7396498;19;20675;-74
2023/01/18 01:02:56;;;;;;;4.77;3.50;;;;;-1.70;90983.00;;;;7396538;19;20173;-74
2023/01/18 01:08:25;;;;;;;3.97;2.93;;;;;-1.60;90985.00;;;;7397247;19;20504;-74
2023/01/18 01:11:03;;;;;;;5.17;2.70;;;;;-1.60;90993.00;;;;7396511;19;20480;-73
2023/01/18 01:28:03;;;;;;;3.63;2.80;;;;;-1.70;91009.00;;;;7398289;19;20132;-74
2023/01/18 01:30:37;;;;;;;4.43;2.90;;;;;-1.60;91001.00;;;;7396888;19;20133;-74
2023/01/18 01:33:11;;;;;;;4.07;2.83;;;;;-1.60;91016.00;;;;7397834;19;20156;-74
2023/01/18 01:35:38;;;;;;;3.23;2.80;;;;;-1.70;91011.00;;;;7397080;19;20592;-74
2023/01/18 01:38:14;;;;;;;5.77;3.20;;;;;-1.60;91017.00;;;;7396937;19;20535;-74
2023/01/18 01:40:42;;;;;;;3.73;2.90;;;;;-1.70;91013.00;;;;7397784;19;20492;-74
2023/01/18 01:43:16;;;;;;;3.20;2.50;;;;;-1.70;91013.00;;;;7396235;19;20596;-74
2023/01/18 01:45:51;;;;;;;2.40;2.20;;;;;-1.70;91020.00;;;;7395331;19;20667;-74
2023/01/18 01:48:19;;;;;;;2.57;2.30;;;;;-1.70;91020.00;;;;7397120;19;20180;-74
2023/01/18 01:50:53;;;;;;;4.10;2.60;;;;;-1.60;91025.00;;;;7396812;19;20148;-74
2023/01/18 01:53:27;;;;;;;3.17;2.27;;;;;-1.70;91031.00;;;;7396500;19;20145;-73
2023/01/18 01:55:54;;;;;;;2.43;2.00;;;;;-1.70;91021.00;;;;7395612;19;20160;-73
2023/01/18 01:58:28;;;;;;;3.23;2.03;;;;;-1.70;91022.00;;;;7396555;19;20152;-73
2023/01/18 02:00:59;;;;;;;3.17;2.27;;;;;-1.70;91026.00;;;;7395011;19;20157;-71
2023/01/18 02:03:39;;;;;;;3.07;2.40;;;;;-1.70;91024.00;;;;7392873;19;20172;-73
2023/01/18 02:06:31;;;;;;;3.37;2.90;;;;;-1.70;91027.00;;;;7396078;19;20140;-71
2023/01/18 02:09:08;;;;;;;3.80;2.77;;;;;-1.70;91023.00;;;;7396751;19;20160;-71
2023/01/18 02:11:38;;;;;;;4.73;3.60;;;;;-1.60;91024.00;;;;7396340;19;20137;-72
2023/01/18 02:14:21;;;;;;;5.77;3.10;;;;;-1.70;91033.00;;;;7393311;19;21654;-72
2023/01/18 02:17:07;;;;;;;5.70;3.60;;;;;-1.60;91035.00;;;;7394751;19;20204;-71
2023/01/18 02:20:07;;;;;;;4.90;3.60;;;;;-1.50;91030.00;;;;7394729;19;20152;-72
2023/01/18 02:23:14;;;;;;;7.23;4.43;;;;;-1.70;91042.00;;;;7396578;19;20498;-71
2023/01/18 02:26:07;;;;;;;6.20;3.90;;;;;-1.60;91046.00;;;;7403483;19;20129;-71
2023/01/18 02:28:50;;;;;;;5.10;3.50;;;;;-1.60;91044.00;;;;7403838;19;20158;-71
2023/01/18 02:31:20;;;;;;;6.23;4.33;;;;;-1.60;91046.00;;;;7403083;19;20124;-71
2023/01/18 02:34:12;;;;;;;4.43;3.90;;;;;-1.60;91040.00;;;;7400520;19;20208;-71
2023/01/18 02:37:02;;;;;;;5.60;3.93;;;;;-1.60;91049.00;;;;7402920;19;20595;-71
2023/01/18 02:40:20;;;;;;;4.90;4.13;;;;;-1.50;91047.00;;;;7402976;19;20133;-71
2023/01/18 02:48:49;;;;;;;8.47;5.07;;;;;-1.60;91060.00;;;;7402769;19;20121;-71
2023/01/18 02:51:23;;;;;;;5.93;4.23;;;;;-1.50;91063.00;;;;7400630;19;20136;-73
2023/01/18 02:53:57;;;;;;;6.57;4.63;;;;;-1.50;91066.00;;;;7401532;19;20491;-71
2023/01/18 02:56:41;;;;;;;5.63;4.60;;;;;-1.50;91068.00;;;;7401823;19;20133;-71
2023/01/18 02:59:29;;;;;;;12.70;5.70;;;;;-1.60;91072.00;;;;7399728;19;20160;-72
2023/01/18 03:02:19;;;;;;;63.37;6.63;;;;;-1.60;91074.00;;;;7399330;19;20180;-71
2023/01/18 03:04:54;;;;;;;202.40;11.50;;;;;-1.50;91073.00;;;;7401634;19;20121;-72
2023/01/18 03:08:18;;;;;;;82.90;8.77;;;;;-1.60;91075.00;;;;7399492;19;20506;-71
2023/01/18 03:11:00;;;;;;;434.30;17.77;;;;;-1.80;91084.00;;;;7397547;19;20160;-71
2023/01/18 03:14:10;;;;;;;762.90;28.90;;;;;-1.80;91073.00;;;;7400310;19;20620;-71
2023/01/18 03:17:08;;;;;;;479.93;19.60;;;;;-2.00;91078.00;;;;7391673;19;20125;-72
2023/01/18 03:20:05;;;;;;;321.10;15.33;;;;;-1.90;91078.00;;;;7401781;19;20133;-71
2023/01/18 03:25:50;;;;;;;352.63;14.17;;;;;-2.10;91086.00;;;;7401923;19;20133;-71
2023/01/18 03:34:59;;;;;;;5.90;3.63;;;;;-2.10;91088.00;;;;7398971;19;20153;-70
2023/01/18 03:37:40;;;;;;;4.50;3.43;;;;;-2.20;91090.00;;;;7398721;19;20494;-70
2023/01/18 03:40:34;;;;;;;4.90;3.40;;;;;-2.00;91088.00;;;;7400625;19;20146;-70
2023/01/18 03:43:10;;;;;;;5.07;3.70;;;;;-2.00;91094.00;;;;7398822;19;20155;-71
2023/01/18 03:45:54;;;;;;;7.07;4.40;;;;;-2.10;91089.00;;;;7400718;19;20121;-71
2023/01/18 03:48:28;;;;;;;8.10;3.90;;;;;-2.00;91094.00;;;;7400615;19;20607;-70
2023/01/18 03:51:10;;;;;;;21.60;5.00;;;;;-2.10;91101.00;;;;7399080;19;20151;-71
2023/01/18 03:54:12;;;;;;;16.70;4.83;;;;;-2.10;91110.00;;;;7399041;19;20156;-70
2023/01/18 03:56:52;;;;;;;20.70;4.87;;;;;-2.10;91118.00;;;;7397275;19;20537;-70
2023/01/18 03:59:33;;;;;;;8.87;4.30;;;;;-2.10;91116.00;;;;7397739;19;20152;-70
2023/01/18 04:02:08;;;;;;;5.97;4.57;;;;;-2.20;91118.00;;;;7396986;19;20189;-70
2023/01/18 04:04:36;;;;;;;7.03;4.03;;;;;-2.20;91126.00;;;;7399705;19;20129;-72
2023/01/18 04:07:09;;;;;;;32.43;5.43;;;;;-2.20;91126.00;;;;7397608;19;20133;-71
2023/01/18 04:09:43;;;;;;;24.27;5.00;;;;;-2.30;91122.00;;;;7399167;19;20121;-70
2023/01/18 04:12:11;;;;;;;5.57;3.93;;;;;-2.20;91130.00;;;;7397985;19;20171;-70
2023/01/18 04:14:53;;;;;;;117.00;8.67;;;;;-2.30;91134.00;;;;7396723;19;20159;-70
2023/01/18 04:17:30;;;;;;;135.57;10.43;;;;;-2.40;91133.00;;;;7398066;19;20639;-71
2023/01/18 04:20:05;;;;;;;16.13;4.73;;;;;-2.40;91143.00;;;;7399313;19;20599;-70
2023/01/18 04:22:41;;;;;;;6.50;3.80;;;;;-2.20;91142.00;;;;7397614;19;20155;-70
2023/01/18 04:25:16;;;;;;;5.23;3.97;;;;;-2.10;91138.00;;;;7398862;19;20156;-70
2023/01/18 04:27:43;;;;;;;4.93;3.90;;;;;-2.20;91142.00;;;;7399140;19;20776;-70
2023/01/18 04:30:18;;;;;;;17.70;4.73;;;;;-2.10;91148.00;;;;7398131;19;20206;-70
2023/01/18 04:32:54;;;;;;;17.10;5.10;;;;;-2.30;91153.00;;;;7397025;19;20602;-70
2023/01/18 04:35:22;;;;;;;16.43;4.83;;;;;-2.20;91165.00;;;;7396237;19;20595;-70
2023/01/18 04:37:55;;;;;;;14.47;4.10;;;;;-2.20;91159.00;;;;7398911;19;20133;-71
2023/01/18 04:40:25;;;;;;;8.80;4.23;;;;;-2.20;91153.00;;;;7397333;19;20163;-71
2023/01/18 04:42:58;;;;;;;6.23;3.90;;;;;-2.20;91165.00;;;;7398498;19;20602;-70
2023/01/18 04:45:32;;;;;;;4.07;3.07;;;;;-2.20;91169.00;;;;7395185;19;20614;-70
2023/01/18 04:48:10;;;;;;;12.73;3.50;;;;;-2.30;91160.00;;;;7393525;19;20155;-70
2023/01/18 04:50:38;;;;;;;4.73;3.00;;;;;-2.20;91173.00;;;;7394728;19;20156;-70
2023/01/18 04:53:13;;;;;;;169.30;10.57;;;;;-2.10;91174.00;;;;7393304;19;20143;-70
2023/01/18 04:55:46;;;;;;;27.87;5.43;;;;;-2.20;91176.00;;;;7392988;19;20140;-71
2023/01/18 04:58:14;;;;;;;24.73;5.53;;;;;-2.30;91189.00;;;;7391764;19;20137;-70
2023/01/18 05:00:48;;;;;;;6.60;3.80;;;;;-2.30;91205.00;;;;7392332;19;20462;-70
2023/01/18 05:03:18;;;;;;;5.97;4.17;;;;;-2.20;91212.00;;;;7392992;19;20948;-72
2023/01/18 05:05:54;;;;;;;45.80;6.47;;;;;-2.40;91213.00;;;;7393757;19;20146;-70
2023/01/18 05:08:27;;;;;;;27.53;5.57;;;;;-2.40;91220.00;;;;7393450;19;20157;-70
2023/01/18 05:11:05;;;;;;;17.27;4.97;;;;;-2.30;91219.00;;;;7393736;19;20153;-71
2023/01/18 05:13:39;;;;;;;8.63;4.30;;;;;-2.40;91220.00;;;;7394630;19;20200;-71
2023/01/18 05:16:21;;;;;;;5.93;3.63;;;;;-2.30;91233.00;;;;7392372;19;20622;-70
2023/01/18 05:18:49;;;;;;;7.33;4.10;;;;;-2.30;91238.00;;;;7394579;19;20507;-70
2023/01/18 05:21:22;;;;;;;5.83;4.37;;;;;-2.30;91234.00;;;;7392542;19;20511;-70
2023/01/18 05:23:50;;;;;;;5.87;4.43;;;;;-2.20;91247.00;;;;7392581;19;20592;-70
2023/01/18 05:26:26;;;;;;;4.73;3.90;;;;;-2.40;91247.00;;;;7391519;19;20132;-71
2023/01/18 05:29:00;;;;;;;4.97;4.07;;;;;-2.30;91259.00;;;;7392017;19;20155;-70
2023/01/18 05:31:33;;;;;;;5.23;3.57;;;;;-2.30;91261.00;;;;7389801;19;20588;-71
2023/01/18 05:34:09;;;;;;;5.40;4.07;;;;;-2.40;91268.00;;;;7391894;19;20169;-70
2023/01/18 05:36:42;;;;;;;5.90;4.07;;;;;-2.40;91280.00;;;;7392823;19;20480;-70
2023/01/18 05:39:10;;;;;;;6.47;4.43;;;;;-2.40;91269.00;;;;7392945;19;20152;-69
2023/01/18 05:41:46;;;;;;;6.70;4.50;;;;;-2.40;91270.00;;;;7391830;19;20239;-72
2023/01/18 05:44:14;;;;;;;7.03;4.80;;;;;-2.40;91281.00;;;;7392208;19;20151;-70
2023/01/18 05:46:49;;;;;;;6.40;4.87;;;;;-2.50;91294.00;;;;7391371;19;20117;-70
2023/01/18 05:49:19;;;;;;;4.93;3.63;;;;;-2.40;91293.00;;;;7389979;19;20157;-70
2023/01/18 05:51:52;;;;;;;5.97;4.53;;;;;-2.30;91302.00;;;;7389643;19;20642;-68
2023/01/18 05:54:22;;;;;;;5.30;3.77;;;;;-2.30;91310.00;;;;7390669;19;20542;-69
2023/01/18 05:56:55;;;;;;;4.30;3.50;;;;;-2.30;91308.00;;;;7388140;19;20188;-70
2023/01/18 05:59:23;;;;;;;6.03;4.03;;;;;-2.40;91305.00;;;;7395076;19;20141;-70
2023/01/18 06:01:56;;;;;;;7.70;3.70;;;;;-2.50;91314.00;;;;7399631;19;20145;-70
2023/01/18 06:04:30;;;;;;;4.80;3.53;;;;;-2.50;91320.00;;;;7400419;19;20135;-69
2023/01/18 06:06:58;;;;;;;5.53;3.73;;;;;-2.50;91324.00;;;;7397866;19;20152;-69
2023/01/18 06:09:31;;;;;;;5.60;3.87;;;;;-2.40;91342.00;;;;7399579;19;20597;-69
2023/01/18 06:11:59;;;;;;;6.53;4.00;;;;;-2.40;91348.00;;;;7398513;19;20166;-70
2023/01/18 06:14:32;;;;;;;6.60;4.43;;;;;-2.70;91346.00;;;;7394878;19;20152;-70
2023/01/18 06:17:07;;;;;;;5.27;3.87;;;;;-2.70;91361.00;;;;7396272;19;20144;-70
2023/01/18 06:19:35;;;;;;;5.37;3.17;;;;;-2.60;91353.00;;;;7397161;19;20184;-70
2023/01/18 06:22:09;;;;;;;5.77;3.60;;;;;-2.60;91361.00;;;;7398783;19;20119;-70
2023/01/18 06:24:36;;;;;;;4.53;3.50;;;;;-2.70;91364.00;;;;7397134;19;20156;-70
2023/01/18 06:27:10;;;;;;;7.93;3.73;;;;;-2.70;91377.00;;;;7397792;19;20578;-70
2023/01/18 06:29:37;;;;;;;4.50;3.20;;;;;-2.70;91381.00;;;;7395529;19;20534;-71
2023/01/18 06:32:11;;;;;;;5.37;3.40;;;;;-2.70;91384.00;;;;7396364;19;20164;-70
2023/01/18 06:39:07;;;;;;;6.47;3.70;;;;;-2.60;91394.00;;;;7396029;19;20175;-70
2023/01/18 06:41:43;;;;;;;5.43;3.87;;;;;-2.60;91396.00;;;;7396748;19;20144;-71
2023/01/18 06:44:20;;;;;;;4.63;3.40;;;;;-2.70;91403.00;;;;7396296;19;20170;-70
2023/01/18 06:46:54;;;;;;;7.63;4.20;;;;;-2.60;91403.00;;;;7398083;19;20132;-71
2023/01/18 06:49:21;;;;;;;5.80;4.30;;;;;-2.70;91409.00;;;;7396915;19;20617;-70
2023/01/18 06:51:54;;;;;;;9.47;4.87;;;;;-2.70;91415.00;;;;7396089;19;20179;-71
2023/01/18 06:54:29;;;;;;;5.47;4.13;;;;;-2.70;91413.00;;;;7396751;19;20131;-70
2023/01/18 06:56:57;;;;;;;8.90;4.57;;;;;-2.90;91414.00;;;;7397107;19;20132;-70
2023/01/18 06:59:30;;;;;;;6.23;4.63;;;;;-2.90;91423.00;;;;7396384;19;20539;-72
2023/01/18 07:02:00;;;;;;;6.97;4.83;;;;;-2.80;91424.00;;;;7395334;19;20212;-71
2023/01/18 07:04:41;;;;;;;7.83;4.40;;;;;-2.70;91428.00;;;;7397090;19;20132;-71
2023/01/18 07:07:08;;;;;;;6.80;4.83;;;;;-2.90;91434.00;;;;7395783;19;20160;-70
2023/01/18 07:09:43;;;;;;;9.87;4.43;;;;;-2.90;91436.00;;;;7395043;19;20156;-70
2023/01/18 07:12:10;;;;;;;6.80;4.90;;;;;-2.90;91441.00;;;;7393906;19;20132;-70
2023/01/18 07:14:50;;;;;;;7.40;5.00;;;;;-2.90;91462.00;;;;7395020;19;20595;-71
2023/01/18 07:17:26;;;;;;;10.10;5.63;;;;;-2.90;91461.00;;;;7395971;19;20634;-70
2023/01/18 07:20:01;;;;;;;7.93;5.50;;;;;-2.80;91463.00;;;;7395826;19;20143;-70
2023/01/18 07:22:37;;;;;;;8.23;5.87;;;;;-3.10;91464.00;;;;7397482;19;20240;-71
2023/01/18 07:25:12;;;;;;;8.50;5.97;;;;;-3.00;91467.00;;;;7396119;19;20148;-70
2023/01/18 07:27:42;;;;;;;10.27;6.00;;;;;-2.90;91474.00;;;;7396455;19;20164;-70
2023/01/18 07:30:17;;;;;;;10.37;7.03;;;;;-2.80;91479.00;;;;7396284;19;20132;-70
2023/01/18 07:32:52;;;;;;;11.70;7.10;;;;;-3.00;91482.00;;;;7396682;19;20140;-70
2023/01/18 07:35:21;;;;;;;8.67;6.23;;;;;-3.00;91484.00;;;;7397186;19;20120;-71
2023/01/18 07:37:54;;;;;;;9.40;6.60;;;;;-3.00;91483.00;;;;7397092;19;20500;-70
2023/01/18 07:40:30;;;;;;;8.90;5.97;;;;;-2.80;91491.00;;;;7395791;19;20638;-71
2023/01/18 07:43:01;;;;;;;7.30;5.50;;;;;-3.00;91496.00;;;;7397217;19;20520;-70
2023/01/18 07:45:36;;;;;;;8.37;5.20;;;;;-2.80;91498.00;;;;7398036;19;20123;-70
2023/01/18 07:48:10;;;;;;;7.80;4.63;;;;;-2.80;91501.00;;;;7397406;19;20136;-71
2023/01/18 07:50:51;;;;;;;7.97;4.73;;;;;-2.90;91502.00;;;;7396169;19;20132;-70
2023/01/18 07:53:19;;;;;;;7.57;5.23;;;;;-3.00;91501.00;;;;7396949;19;20130;-70
2023/01/18 07:55:53;;;;;;;7.00;5.37;;;;;-2.90;91508.00;;;;7394562;19;20617;-71
2023/01/18 07:58:21;;;;;;;9.57;5.70;;;;;-2.90;91518.00;;;;7395106;19;20548;-71
2023/01/18 08:01:00;;;;;;;11.97;6.63;;;;;-3.00;91526.00;;;;7396581;19;20208;-72
2023/01/18 08:03:30;;;;;;;9.63;6.37;;;;;-2.90;91532.00;;;;7395001;19;20171;-70
2023/01/18 08:06:06;;;;;;;11.37;6.60;;;;;-2.90;91525.00;;;;7395879;19;20151;-71
2023/01/18 08:08:40;;;;;;;7.83;5.40;;;;;-3.00;91545.00;;;;7396508;19;20132;-72
2023/01/18 08:11:08;;;;;;;9.37;6.37;;;;;-2.70;91544.00;;;;7395153;19;20595;-71
2023/01/18 08:13:51;;;;;;;8.13;5.90;;;;;-2.60;91548.00;;;;7393878;19;20613;-72
2023/01/18 08:16:25;;;;;;;13.07;8.23;;;;;-3.10;91550.00;;;;7394054;19;20507;-70
2023/01/18 08:18:59;;;;;;;8.47;5.03;;;;;-2.90;91550.00;;;;7394661;19;20169;-71
2023/01/18 08:21:27;;;;;;;8.77;5.93;;;;;-2.90;91551.00;;;;7392627;19;20204;-71
2023/01/18 08:24:00;;;;;;;7.97;4.83;;;;;-2.70;91558.00;;;;7394263;19;20149;-71
2023/01/18 08:26:28;;;;;;;6.30;4.57;;;;;-2.50;91559.00;;;;7393911;19;20133;-70
2023/01/18 08:29:01;;;;;;;7.23;4.30;;;;;-2.70;91568.00;;;;7394029;19;20141;-71
2023/01/18 08:31:35;;;;;;;4.90;3.80;;;;;-2.60;91567.00;;;;7394492;19;20619;-70
2023/01/18 08:34:03;;;;;;;4.67;3.63;;;;;-2.50;91564.00;;;;7395180;19;20143;-71
2023/01/18 08:36:37;;;;;;;7.53;3.90;;;;;-2.10;91581.00;;;;7393011;19;20630;-70
2023/01/18 08:39:05;;;;;;;8.37;4.63;;;;;-2.60;91573.00;;;;7392978;19;20505;-71
2023/01/18 08:41:40;;;;;;;6.73;4.73;;;;;-2.40;91573.00;;;;7395585;19;20136;-71
2023/01/18 08:44:10;;;;;;;6.97;4.03;;;;;-2.40;91586.00;;;;7395264;19;20137;-73
2023/01/18 08:46:44;;;;;;;7.07;3.80;;;;;-2.40;91595.00;;;;7393079;19;20506;-70
2023/01/18 08:49:14;;;;;;;6.47;3.63;;;;;-2.30;91597.00;;;;7394018;19;20160;-71
2023/01/18 08:51:48;;;;;;;5.57;4.00;;;;;-2.20;91607.00;;;;7394727;19;20158;-70
2023/01/18 08:54:15;;;;;;;7.23;3.83;;;;;-2.30;91620.00;;;;7393112;19;20161;-71
2023/01/18 08:56:52;;;;;;;6.67;4.33;;;;;-2.00;91619.00;;;;7393879;19;20144;-71
2023/01/18 08:59:22;;;;;;;9.87;4.80;;;;;-1.90;91620.00;;;;7393554;19;20184;-71
2023/01/18 09:01:58;;;;;;;5.07;3.30;;;;;-1.70;91622.00;;;;7394650;19;20140;-70
2023/01/18 09:04:27;;;;;;;4.80;3.70;;;;;-1.80;91636.00;;;;7394719;19;20513;-71
2023/01/18 09:07:01;;;;;;;4.10;3.00;;;;;-2.10;91630.00;;;;7394855;19;20136;-71
2023/01/18 09:09:35;;;;;;;5.07;3.67;;;;;-1.70;91637.00;;;;7393811;19;20146;-70
2023/01/18 09:12:14;;;;;;;6.80;3.70;;;;;-1.60;91644.00;;;;7393527;19;20177;-72
2023/01/18 09:14:47;;;;;;;5.33;3.63;;;;;-1.90;91643.00;;;;7390639;19;20163;-71
2023/01/18 09:17:29;;;;;;;7.47;4.30;;;;;-1.70;91653.00;;;;7392057;19;20208;-70
2023/01/18 09:20:08;;;;;;;5.93;3.70;;;;;-1.70;91659.00;;;;7392162;19;20727;-72
2023/01/18 09:22:46;;;;;;;6.17;3.93;;;;;-2.00;91672.00;;;;7387966;19;20546;-72
2023/01/18 09:25:17;;;;;;;8.20;3.83;;;;;-1.90;91682.00;;;;7392975;19;20160;-72
2023/01/18 09:27:51;;;;;;;5.90;3.90;;;;;-1.90;91682.00;;;;7391975;19;20490;-71
2023/01/18 09:30:18;;;;;;;5.77;3.50;;;;;-2.00;91689.00;;;;7394474;19;20148;-71
2023/01/18 09:32:53;;;;;;;7.17;4.07;;;;;-2.00;91700.00;;;;7392409;19;20140;-71
2023/01/18 09:35:27;;;;;;;7.40;4.10;;;;;-1.90;91700.00;;;;7399404;19;20133;-72
2023/01/18 09:38:01;;;;;;;5.17;3.60;;;;;-2.10;91699.00;;;;7397866;19;20151;-69
2023/01/18 09:40:44;;;;;;;8.20;3.50;;;;;-1.90;91704.00;;;;7402053;19;20607;-69
2023/01/18 09:43:27;;;;;;;5.70;2.50;;;;;-1.60;91701.00;;;;7399414;19;20154;-71
2023/01/18 09:45:55;;;;;;;7.73;4.20;;;;;-1.90;91707.00;;;;7400965;19;20125;-72
2023/01/18 09:48:36;;;;;;;5.63;3.67;;;;;-1.30;91716.00;;;;7399287;19;20524;-71
2023/01/18 09:51:12;;;;;;;8.03;4.07;;;;;-1.40;91716.00;;;;7399245;19;20208;-71
2023/01/18 09:54:00;;;;;;;10.23;4.30;;;;;-1.30;91732.00;;;;7401160;19;20137;-73
2023/01/18 09:56:54;;;;;;;5.40;3.50;;;;;-1.30;91725.00;;;;7398432;19;20133;-72
2023/01/18 09:59:41;;;;;;;6.37;3.63;;;;;-1.60;91729.00;;;;7399883;19;20139;-71
2023/01/18 10:02:24;;;;;;;6.40;3.40;;;;;-1.10;91737.00;;;;7396496;19;20157;-72
2023/01/18 10:05:01;;;;;;;7.27;3.53;;;;;-1.60;91733.00;;;;7392280;19;20603;-72
2023/01/18 10:07:45;;;;;;;8.53;3.80;;;;;-2.00;91736.00;;;;7393982;19;20153;-70
2023/01/18 10:10:17;;;;;;;6.23;4.17;;;;;-1.50;91744.00;;;;7395433;19;20596;-71
2023/01/18 10:13:26;;;;;;;7.43;4.00;;;;;-1.40;91749.00;;;;7394048;19;20647;-73
2023/01/18 10:16:01;;;;;;;15.83;8.17;;;;;-1.70;91743.00;;;;7389399;19;20172;-73
2023/01/18 10:18:44;;;;;;;7.33;5.13;;;;;-1.50;91762.00;;;;7393610;19;20567;-72
2023/01/18 10:21:47;;;;;;;7.83;4.43;;;;;-1.20;91757.00;;;;7392193;19;20618;-72
2023/01/18 10:24:21;;;;;;;7.13;4.37;;;;;-1.60;91757.00;;;;7393470;19;20174;-72
2023/01/18 10:27:26;;;;;;;5.00;3.50;;;;;-1.60;91760.00;;;;7393447;19;20642;-72
2023/01/18 10:30:13;;;;;;;5.53;3.50;;;;;-0.60;91752.00;;;;7392031;19;20136;-72
2023/01/18 10:32:53;;;;;;;4.70;3.23;;;;;-0.30;91762.00;;;;7395667;19;20164;-72
2023/01/18 10:35:33;;;;;;;3.60;2.67;;;;;-0.90;91759.00;;;;7398884;19;20173;-71
2023/01/18 10:38:11;;;;;;;5.23;3.10;;;;;-1.30;91758.00;;;;7391200;19;20136;-73
2023/01/18 10:40:41;;;;;;;6.27;3.00;;;;;-0.80;91758.00;;;;7393477;19;20156;-72
2023/01/18 10:43:19;;;;;;;5.17;3.33;;;;;-0.10;91750.00;;;;7392764;19;20148;-73
2023/01/18 10:45:47;;;;;;;4.93;2.70;;;;;0.70;91763.00;;;;7392546;19;20600;-73
2023/01/18 10:48:26;;;;;;;5.63;2.63;;;;;-0.70;91770.00;;;;7390297;19;20182;-72
2023/01/18 10:51:25;;;;;;;4.17;2.60;;;;;-0.30;91754.00;;;;7392127;19;20518;-72
2023/01/18 10:53:59;;;;;;;3.47;2.20;;;;;0.40;91762.00;;;;7394430;19;20163;-72
2023/01/18 10:56:32;;;;;;;5.50;2.60;;;;;-0.30;91765.00;;;;7391540;19;20145;-73
2023/01/18 10:59:00;;;;;;;4.63;2.13;;;;;-0.10;91778.00;;;;7394039;19;20145;-72
2023/01/18 11:01:51;;;;;;;3.83;2.43;;;;;-0.30;91784.00;;;;7397238;19;20139;-72
2023/01/18 11:04:29;;;;;;;4.07;2.37;;;;;-0.90;91789.00;;;;7396922;19;20176;-72
2023/01/18 11:07:00;;;;;;;3.53;2.70;;;;;-0.10;91791.00;;;;7397872;19;20129;-72
2023/01/18 11:09:54;;;;;;;5.10;2.80;;;;;0.10;91795.00;;;;7397287;19;20169;-71
2023/01/18 11:12:37;;;;;;;3.83;2.47;;;;;0.40;91784.00;;;;7396313;19;20622;-72
2023/01/18 11:15:22;;;;;;;3.80;2.30;;;;;0.30;91791.00;;;;7394081;19;20183;-71
2023/01/18 11:17:56;;;;;;;7.90;2.63;;;;;-0.20;91798.00;;;;7392914;19;20140;-71
2023/01/18 11:20:44;;;;;;;3.87;2.57;;;;;0.00;91792.00;;;;7392852;19;20141;-71
2023/01/18 11:23:21;;;;;;;3.37;2.30;;;;;0.70;91789.00;;;;7395539;19;20152;-72
2023/01/18 11:25:58;;;;;;;6.10;2.73;;;;;-0.20;91792.00;;;;7393209;19;20148;-72
2023/01/18 11:28:44;;;;;;;6.00;2.90;;;;;0.00;91802.00;;;;7393440;19;20845;-71
2023/01/18 11:31:24;;;;;;;5.70;3.60;;;;;1.20;91805.00;;;;7396536;19;20490;-72
2023/01/18 11:33:54;;;;;;;4.13;2.73;;;;;1.10;91816.00;;;;7398046;19;20176;-72
2023/01/18 11:36:41;;;;;;;13.97;7.20;;;;;0.20;91783.00;;;;7397211;19;20535;-71
2023/01/18 11:39:25;;;;;;;5.20;3.27;;;;;0.10;91807.00;;;;7397869;19;20145;-71
2023/01/18 11:42:20;;;;;;;10.17;4.67;;;;;1.30;91808.00;;;;7396465;19;20133;-71
2023/01/18 11:45:04;;;;;;;12.33;6.63;;;;;0.90;91813.00;;;;7396583;19;20148;-71
2023/01/18 11:47:39;;;;;;;8.60;3.47;;;;;0.10;91827.00;;;;7396643;19;20148;-72
2023/01/18 11:50:36;;;;;;;5.73;3.33;;;;;-0.40;91832.00;;;;7396532;19;20160;-71
2023/01/18 11:53:12;;;;;;;6.67;2.77;;;;;0.00;91834.00;;;;7395658;19;20139;-71
2023/01/18 11:56:05;;;;;;;5.53;2.80;;;;;0.20;91846.00;;;;7397463;19;20152;-71
2023/01/18 11:58:40;;;;;;;4.87;2.63;;;;;0.30;91829.00;;;;7392515;19;20148;-71
2023/01/18 12:01:40;;;;;;;6.47;3.30;;;;;0.50;91835.00;;;;7397296;19;20144;-71
2023/01/18 12:04:27;;;;;;;5.10;3.00;;;;;0.80;91840.00;;;;7394625;19;20148;-72
2023/01/18 12:07:30;;;;;;;4.17;2.53;;;;;1.40;91841.00;;;;7398952;19;20208;-70
2023/01/18 12:10:00;;;;;;;7.13;3.03;;;;;0.20;91851.00;;;;7398525;19;20602;-70
2023/01/18 12:12:51;;;;;;;3.07;2.10;;;;;0.50;91861.00;;;;7397809;19;20224;-71
2023/01/18 12:15:28;;;;;;;4.00;2.50;;;;;0.00;91872.00;;;;7397534;19;20172;-71
2023/01/18 12:18:23;;;;;;;4.30;2.40;;;;;-0.30;91875.00;;;;7398400;19;20137;-71
2023/01/18 12:21:11;;;;;;;5.60;2.30;;;;;0.00;91885.00;;;;7398861;19;20476;-71
2023/01/18 12:24:22;;;;;;;3.80;2.53;;;;;0.30;91885.00;;;;7400052;19;20587;-71
2023/01/18 12:26:53;;;;;;;3.90;2.60;;;;;0.20;91900.00;;;;7397872;19;20150;-70
2023/01/18 12:29:35;;;;;;;3.20;2.10;;;;;0.20;91889.00;;;;7400067;19;20131;-71
2023/01/18 12:32:32;;;;;;;6.10;2.40;;;;;0.30;91886.00;;;;7398516;19;20154;-71
2023/01/18 12:35:24;;;;;;;3.80;2.20;;;;;0.30;91893.00;;;;7397638;19;20606;-71
2023/01/18 12:38:04;;;;;;;7.57;2.30;;;;;0.30;91892.00;;;;7397715;19;20129;-70
2023/01/18 12:40:49;;;;;;;7.30;2.97;;;;;0.20;91888.00;;;;7397985;19;20148;-69
2023/01/18 12:43:39;;;;;;;7.17;2.20;;;;;0.40;91897.00;;;;7397734;19;20141;-69
2023/01/18 12:46:21;;;;;;;3.13;2.07;;;;;0.50;91894.00;;;;7399923;19;20181;-70
2023/01/18 12:48:58;;;;;;;6.50;2.40;;;;;1.00;91894.00;;;;7398000;19;20144;-71
2023/01/18 12:51:35;;;;;;;4.93;2.10;;;;;1.60;91893.00;;;;7398536;19;20136;-70
2023/01/18 12:54:15;;;;;;;4.70;2.13;;;;;1.40;91896.00;;;;7397797;19;20140;-70
2023/01/18 12:56:52;;;;;;;3.67;2.03;;;;;1.30;91911.00;;;;7397407;19;20129;-70
2023/01/18 12:59:57;;;;;;;4.73;2.37;;;;;1.20;91911.00;;;;7395919;19;20140;-70
2023/01/18 13:02:46;;;;;;;3.43;2.20;;;;;1.00;91911.00;;;;7397421;19;20193;-70
2023/01/18 13:05:41;;;;;;;3.70;1.87;;;;;1.10;91918.00;;;;7397631;19;20141;-69
2023/01/18 13:08:22;;;;;;;4.10;2.60;;;;;1.30;91918.00;;;;7397560;19;20157;-70
2023/01/18 13:11:02;;;;;;;2.00;1.70;;;;;1.70;91932.00;;;;7397629;19;20606;-71
2023/01/18 13:13:40;;;;;;;9.53;3.73;;;;;1.10;91931.00;;;;7397274;19;20168;-70
2023/01/18 13:16:38;;;;;;;20.43;8.40;;;;;1.10;91934.00;;;;7395676;19;20168;-70
2023/01/18 13:19:21;;;;;;;2.60;1.67;;;;;1.60;91945.00;;;;7395544;19;20656;-70
2023/01/18 13:22:22;;;;;;;10.27;5.03;;;;;1.50;91948.00;;;;7396872;19;20140;-70
2023/01/18 13:25:29;;;;;;;7.53;3.90;;;;;1.20;91945.00;;;;7397457;19;20136;-71
2023/01/18 13:28:13;;;;;;;3.47;2.20;;;;;1.30;91945.00;;;;7396559;19;20137;-70
2023/01/18 13:30:59;;;;;;;7.10;3.67;;;;;1.90;91944.00;;;;7396664;19;20600;-70
2023/01/18 13:33:38;;;;;;;9.27;3.70;;;;;1.30;91949.00;;;;7396642;19;20203;-71
2023/01/18 13:36:16;;;;;;;9.53;4.57;;;;;1.40;91957.00;;;;7396945;19;20172;-71
2023/01/18 13:38:55;;;;;;;8.40;3.80;;;;;1.90;91967.00;;;;7395931;19;20630;-71
2023/01/18 13:41:30;;;;;;;6.17;3.27;;;;;1.70;91966.00;;;;7396800;19;20145;-71
2023/01/18 13:44:01;;;;;;;6.87;2.40;;;;;1.10;91976.00;;;;7397290;19;20212;-71
2023/01/18 13:46:37;;;;;;;4.40;2.87;;;;;1.00;91985.00;;;;7398134;19;20204;-70
2023/01/18 13:49:36;;;;;;;2.57;2.00;;;;;0.50;91986.00;;;;7396437;19;20129;-70
2023/01/18 13:52:41;;;;;;;3.63;2.60;;;;;0.80;91987.00;;;;7396826;19;20200;-70